Time;durP1;ratioP1;P1;durP2;ratioP2;P2;SDS_P1;SDS_P2;PMS_P1;PMS_P2;Temp;Humidity;BMP_temperature;BMP_pressure;BME280_temperature;BME280_humidity;BME280_pressure;Samples;Min_cycle;Max_cycle;Signal;HPM_P1;HPM_P2
2023/06/03 00:00:25;;;;;;;8.63;3.35;;;14.60;99.90;;;;;;5107841;28;20067;-59
2023/06/03 00:02:52;;;;;;;4.25;3.28;;;14.50;99.90;;;;;;5108875;28;20015;-58
2023/06/03 00:05:20;;;;;;;12.75;3.85;;;14.50;99.90;;;;;;5110815;28;20119;-59
2023/06/03 00:07:45;;;;;;;11.82;3.75;;;14.40;99.90;;;;;;5112393;28;20034;-58
2023/06/03 00:10:11;;;;;;;10.05;3.47;;;14.40;99.90;;;;;;5107701;28;20027;-58
2023/06/03 00:12:37;;;;;;;9.30;3.65;;;14.40;99.90;;;;;;5111241;28;20046;-56
2023/06/03 00:15:03;;;;;;;9.18;3.53;;;14.30;99.90;;;;;;5113535;28;20508;-56
2023/06/03 00:17:28;;;;;;;7.25;3.47;;;14.30;99.90;;;;;;5112136;28;20057;-56
2023/06/03 00:19:54;;;;;;;7.45;3.15;;;14.20;99.90;;;;;;5111569;28;20050;-57
2023/06/03 00:22:23;;;;;;;9.32;3.67;;;14.10;99.90;;;;;;5106746;28;20016;-58
2023/06/03 00:24:49;;;;;;;9.07;3.28;;;14.10;99.90;;;;;;5107465;28;21092;-56
2023/06/03 00:27:15;;;;;;;8.02;3.30;;;14.10;99.90;;;;;;5104768;27;20098;-60
2023/06/03 00:29:40;;;;;;;5.82;3.17;;;14.10;99.90;;;;;;5103859;28;20023;-57
2023/06/03 00:32:06;;;;;;;10.50;2.92;;;14.10;99.90;;;;;;5112258;28;20027;-57
2023/06/03 00:34:32;;;;;;;8.27;3.15;;;14.00;99.90;;;;;;5112030;28;20030;-58
2023/06/03 00:36:57;;;;;;;12.60;3.72;;;13.90;99.90;;;;;;5112214;28;20027;-59
2023/06/03 00:39:23;;;;;;;10.02;3.83;;;13.80;99.90;;;;;;5111136;28;20598;-58
2023/06/03 00:41:48;;;;;;;5.05;2.72;;;13.70;99.90;;;;;;5111271;28;20032;-59
2023/06/03 00:44:14;;;;;;;9.65;3.38;;;13.70;99.90;;;;;;5108610;28;20020;-58
2023/06/03 00:46:41;;;;;;;11.30;4.53;;;13.60;99.90;;;;;;5109552;28;20445;-60
2023/06/03 00:49:07;;;;;;;9.38;3.45;;;13.50;99.90;;;;;;5111550;28;20481;-56
2023/06/03 00:51:33;;;;;;;8.43;3.00;;;13.50;99.90;;;;;;5107133;28;20027;-58
2023/06/03 00:53:59;;;;;;;9.00;3.05;;;13.50;99.90;;;;;;5106026;28;20521;-60
2023/06/03 00:56:26;;;;;;;9.77;3.30;;;13.40;99.90;;;;;;5110972;28;20027;-59
2023/06/03 00:58:51;;;;;;;10.98;4.05;;;13.30;99.90;;;;;;5110947;28;20062;-58
2023/06/03 01:01:19;;;;;;;13.95;4.15;;;13.10;99.90;;;;;;5111792;28;20051;-55
2023/06/03 01:03:47;;;;;;;12.73;3.75;;;13.00;99.90;;;;;;5113424;28;20019;-58
2023/06/03 01:06:45;;;;;;;10.23;3.40;;;13.00;99.90;;;;;;5112760;28;20027;-55
2023/06/03 01:09:37;;;;;;;8.23;4.00;;;12.90;99.90;;;;;;5108516;28;20435;-53
2023/06/03 01:12:12;;;;;;;9.20;3.45;;;12.80;99.90;;;;;;5108462;28;20450;-57
2023/06/03 01:14:55;;;;;;;13.02;3.88;;;12.80;99.90;;;;;;5109646;28;20107;-59
2023/06/03 01:17:24;;;;;;;7.10;3.15;;;12.80;99.90;;;;;;5110773;28;20482;-58
2023/06/03 01:19:50;;;;;;;9.68;3.75;;;12.80;99.90;;;;;;5109818;28;20126;-58
2023/06/03 01:22:18;;;;;;;8.48;3.50;;;12.80;99.90;;;;;;5102199;28;20040;-59
2023/06/03 01:24:44;;;;;;;11.23;3.45;;;12.80;99.90;;;;;;5112737;28;20019;-59
2023/06/03 01:27:10;;;;;;;7.85;3.25;;;12.70;99.90;;;;;;5110108;28;20031;-57
2023/06/03 01:29:41;;;;;;;8.00;3.30;;;12.80;99.90;;;;;;5107255;28;20028;-55
2023/06/03 01:32:10;;;;;;;10.05;3.28;;;12.80;99.90;;;;;;5111504;28;20027;-55
2023/06/03 01:34:36;;;;;;;6.60;2.97;;;12.80;99.90;;;;;;5111003;28;20024;-56
2023/06/03 01:37:02;;;;;;;13.07;4.20;;;12.80;99.90;;;;;;5106196;28;20076;-56
2023/06/03 01:39:28;;;;;;;8.02;3.35;;;12.90;99.90;;;;;;5104180;28;20062;-56
2023/06/03 01:41:54;;;;;;;10.23;3.65;;;12.90;99.90;;;;;;5107872;28;20028;-56
2023/06/03 01:44:19;;;;;;;7.63;3.17;;;12.90;99.90;;;;;;5109058;28;20389;-57
2023/06/03 01:46:45;;;;;;;9.23;3.75;;;12.90;99.90;;;;;;5109777;28;20028;-55
2023/06/03 01:49:11;;;;;;;9.25;2.90;;;13.00;99.90;;;;;;5112411;28;20028;-52
2023/06/03 01:51:36;;;;;;;6.93;3.38;;;13.00;99.90;;;;;;5108671;28;20346;-57
2023/06/03 01:54:02;;;;;;;7.55;3.20;;;13.00;99.90;;;;;;5109554;28;20028;-57
2023/06/03 01:56:28;;;;;;;6.68;3.30;;;13.00;99.90;;;;;;5103251;28;20028;-57
2023/06/03 01:58:53;;;;;;;7.05;3.20;;;13.00;99.90;;;;;;5111033;28;20036;-57
2023/06/03 02:01:19;;;;;;;5.32;2.72;;;13.10;99.90;;;;;;5108527;28;20501;-56
2023/06/03 02:03:44;;;;;;;7.57;2.95;;;13.10;99.90;;;;;;5112085;28;20027;-59
2023/06/03 02:06:12;;;;;;;8.20;3.33;;;13.00;99.90;;;;;;5111014;28;20501;-59
2023/06/03 02:08:38;;;;;;;9.07;3.22;;;13.00;99.90;;;;;;5103092;28;20023;-58
2023/06/03 02:11:03;;;;;;;7.85;3.25;;;12.90;99.90;;;;;;5105894;28;20053;-60
2023/06/03 02:13:29;;;;;;;7.75;3.17;;;12.70;99.90;;;;;;5110566;28;20023;-58
2023/06/03 02:15:54;;;;;;;22.67;4.30;;;12.40;99.90;;;;;;5108429;28;20037;-58
2023/06/03 02:18:20;;;;;;;12.40;3.72;;;12.10;99.90;;;;;;5103120;28;20051;-60
2023/06/03 02:20:45;;;;;;;11.65;3.22;;;11.90;99.90;;;;;;5110646;28;20058;-59
2023/06/03 02:23:11;;;;;;;12.30;3.97;;;11.80;99.90;;;;;;5109431;28;20107;-58
2023/06/03 02:25:37;;;;;;;14.10;4.22;;;11.60;99.90;;;;;;5103861;28;20030;-58
2023/06/03 02:28:03;;;;;;;13.13;3.60;;;11.50;99.90;;;;;;5101351;28;20077;-59
2023/06/03 02:30:28;;;;;;;13.68;4.25;;;11.50;99.90;;;;;;5105219;28;20042;-58
2023/06/03 02:32:54;;;;;;;9.60;4.05;;;11.40;99.90;;;;;;5102651;28;20035;-60
2023/06/03 02:35:20;;;;;;;16.20;3.80;;;11.30;99.90;;;;;;5101810;28;20445;-58
2023/06/03 02:37:45;;;;;;;11.23;3.70;;;11.30;99.90;;;;;;5102569;28;20035;-59
2023/06/03 02:40:11;;;;;;;12.13;3.92;;;11.20;99.90;;;;;;5105207;28;20470;-60
2023/06/03 02:42:38;;;;;;;13.23;3.88;;;11.20;99.90;;;;;;5105080;28;20020;-55
2023/06/03 02:45:04;;;;;;;11.65;4.05;;;11.10;99.90;;;;;;5109746;28;20031;-58
2023/06/03 02:47:29;;;;;;;15.35;4.15;;;11.00;99.90;;;;;;5104448;28;20380;-52
2023/06/03 02:49:56;;;;;;;19.42;5.10;;;11.00;99.90;;;;;;5111624;28;20027;-59
2023/06/03 02:52:22;;;;;;;8.00;3.67;;;10.90;99.90;;;;;;5111424;28;20500;-59
2023/06/03 02:54:48;;;;;;;9.18;4.28;;;10.80;99.90;;;;;;5104404;28;20162;-57
2023/06/03 02:57:14;;;;;;;7.60;3.97;;;10.80;99.90;;;;;;5110977;28;20040;-57
2023/06/03 02:59:40;;;;;;;8.88;3.80;;;10.70;99.90;;;;;;5105551;28;20386;-56
2023/06/03 03:02:06;;;;;;;11.23;4.78;;;10.70;99.90;;;;;;5106738;28;20016;-59
2023/06/03 03:04:36;;;;;;;13.75;4.95;;;10.60;99.90;;;;;;5112098;28;20030;-57
2023/06/03 03:07:05;;;;;;;8.13;4.28;;;10.50;99.90;;;;;;5113090;27;20016;-56
2023/06/03 03:09:31;;;;;;;16.65;4.88;;;10.50;99.90;;;;;;5105007;28;20034;-55
2023/06/03 03:11:56;;;;;;;13.00;5.03;;;10.50;99.90;;;;;;5109285;28;20028;-59
2023/06/03 03:14:22;;;;;;;13.25;3.95;;;10.50;99.90;;;;;;5105656;28;20027;-58
2023/06/03 03:16:47;;;;;;;12.73;4.88;;;10.40;99.90;;;;;;5106864;28;20111;-58
2023/06/03 03:19:14;;;;;;;14.68;4.90;;;10.40;99.90;;;;;;5109943;28;20107;-57
2023/06/03 03:21:39;;;;;;;13.75;4.20;;;10.30;99.90;;;;;;5110230;28;20074;-56
2023/06/03 03:24:06;;;;;;;14.13;4.53;;;10.40;99.90;;;;;;5107575;28;20485;-56
2023/06/03 03:26:32;;;;;;;9.05;4.97;;;10.30;99.90;;;;;;5109876;28;20542;-56
2023/06/03 03:28:58;;;;;;;7.72;4.18;;;10.30;99.90;;;;;;5104558;28;20012;-57
2023/06/03 03:31:24;;;;;;;12.48;4.32;;;10.30;99.90;;;;;;5104778;28;20039;-59
2023/06/03 03:33:50;;;;;;;7.68;3.78;;;10.30;99.90;;;;;;5105802;28;20062;-52
2023/06/03 03:36:26;;;;;;;14.45;4.47;;;10.20;99.90;;;;;;5110914;28;20092;-54
2023/06/03 03:39:02;;;;;;;9.73;3.92;;;10.20;99.90;;;;;;5104648;28;20032;-55
2023/06/03 03:41:29;;;;;;;11.65;4.70;;;10.10;99.90;;;;;;5109161;28;20443;-60
2023/06/03 03:43:54;;;;;;;10.23;4.47;;;10.10;99.90;;;;;;5108940;28;20032;-56
2023/06/03 03:46:20;;;;;;;12.40;4.82;;;10.20;99.90;;;;;;5104633;28;20080;-57
2023/06/03 03:48:46;;;;;;;10.02;4.20;;;10.10;99.90;;;;;;5107161;28;20107;-55
2023/06/03 03:51:13;;;;;;;12.43;4.53;;;10.10;99.90;;;;;;5107563;28;20035;-57
2023/06/03 03:53:43;;;;;;;12.05;4.38;;;10.20;99.90;;;;;;5099970;28;20043;-56
2023/06/03 03:56:08;;;;;;;10.90;4.30;;;10.30;99.90;;;;;;5105221;28;20046;-56
2023/06/03 03:58:37;;;;;;;10.45;4.75;;;10.30;99.90;;;;;;5102908;28;20239;-56
2023/06/03 04:01:24;;;;;;;18.13;4.32;;;10.30;99.90;;;;;;5108060;28;20071;-59
2023/06/03 04:03:55;;;;;;;8.95;4.32;;;10.30;99.90;;;;;;5107545;28;20023;-56
2023/06/03 04:06:29;;;;;;;9.07;4.60;;;10.30;99.90;;;;;;5107373;28;20023;-57
2023/06/03 04:08:56;;;;;;;12.90;4.13;;;10.30;99.90;;;;;;5105019;28;20035;-58
2023/06/03 04:11:27;;;;;;;9.43;4.05;;;10.30;99.90;;;;;;5103958;28;20374;-58
2023/06/03 04:13:53;;;;;;;11.63;4.32;;;10.30;99.90;;;;;;5103726;28;20027;-57
2023/06/03 04:16:42;;;;;;;9.05;4.95;;;10.30;99.90;;;;;;5106428;28;20028;-57
2023/06/03 04:19:33;;;;;;;12.85;4.07;;;10.30;99.90;;;;;;5105231;28;20482;-58
2023/06/03 04:22:03;;;;;;;15.77;3.83;;;10.40;99.90;;;;;;5096743;28;20605;-57
2023/06/03 04:24:29;;;;;;;9.63;4.18;;;10.50;99.90;;;;;;5106329;28;20139;-59
2023/06/03 04:26:55;;;;;;;10.80;4.32;;;10.50;99.90;;;;;;5105761;28;20061;-60
2023/06/03 04:29:22;;;;;;;12.82;4.43;;;10.50;99.90;;;;;;5103006;28;20047;-58
2023/06/03 04:31:48;;;;;;;15.73;3.92;;;10.60;99.90;;;;;;5105690;28;20031;-55
2023/06/03 04:34:13;;;;;;;11.65;4.15;;;10.60;99.90;;;;;;5109156;28;20024;-58
2023/06/03 04:36:39;;;;;;;9.23;4.07;;;10.70;99.90;;;;;;5103776;28;20028;-56
2023/06/03 04:39:05;;;;;;;8.38;4.28;;;10.70;99.90;;;;;;5107593;28;20509;-58
2023/06/03 04:41:33;;;;;;;8.82;3.65;;;10.70;99.90;;;;;;5106178;28;20046;-57
2023/06/03 04:44:02;;;;;;;9.90;4.40;;;10.80;99.90;;;;;;5105536;28;20119;-56
2023/06/03 04:46:31;;;;;;;9.23;3.65;;;10.80;99.90;;;;;;5103946;28;20016;-58
2023/06/03 04:48:58;;;;;;;8.25;3.70;;;10.90;99.90;;;;;;5107863;28;20137;-57
2023/06/03 04:51:33;;;;;;;6.32;3.85;;;10.90;99.90;;;;;;5103782;28;20504;-56
2023/06/03 04:53:59;;;;;;;10.48;3.75;;;10.90;99.90;;;;;;5104212;28;20078;-59
2023/06/03 04:56:25;;;;;;;11.90;4.15;;;11.00;99.90;;;;;;5109747;28;20537;-57
2023/06/03 04:58:57;;;;;;;9.50;3.75;;;11.20;99.90;;;;;;5112698;28;20047;-53
2023/06/03 05:01:23;;;;;;;10.15;4.38;;;11.20;99.90;;;;;;5110256;28;20031;-56
2023/06/03 05:03:53;;;;;;;12.95;4.20;;;11.30;99.90;;;;;;5108458;28;20043;-58
2023/06/03 05:06:19;;;;;;;7.57;3.83;;;11.40;99.90;;;;;;5108718;28;20023;-56
2023/06/03 05:08:48;;;;;;;3.75;3.03;;;11.40;99.90;;;;;;5107328;28;20028;-56
2023/06/03 05:11:17;;;;;;;6.45;3.38;;;11.50;99.90;;;;;;5112212;28;20027;-57
2023/06/03 05:13:43;;;;;;;11.10;3.58;;;11.60;99.90;;;;;;5109394;28;20023;-55
2023/06/03 05:16:09;;;;;;;5.90;2.67;;;11.70;99.90;;;;;;5110058;28;20028;-55
2023/06/03 05:18:35;;;;;;;6.57;2.20;;;11.80;99.90;;;;;;5112752;28;20046;-60
2023/06/03 05:21:02;;;;;;;7.63;2.42;;;11.90;99.90;;;;;;5109108;28;20024;-54
2023/06/03 05:23:27;;;;;;;5.82;2.15;;;12.00;99.90;;;;;;5108006;28;20012;-58
2023/06/03 05:25:53;;;;;;;5.82;1.90;;;12.10;99.90;;;;;;5114086;27;20035;-58
2023/06/03 05:28:18;;;;;;;9.32;1.73;;;12.20;99.90;;;;;;5112568;27;20023;-55
2023/06/03 05:30:44;;;;;;;9.15;2.17;;;12.30;99.90;;;;;;5110990;28;20047;-58
2023/06/03 05:33:22;;;;;;;7.22;1.67;;;12.30;99.90;;;;;;5103658;28;20019;-58
2023/06/03 05:35:47;;;;;;;6.28;1.45;;;12.40;99.90;;;;;;5105738;28;20035;-54
2023/06/03 05:38:13;;;;;;;5.50;1.70;;;12.60;99.90;;;;;;5107525;28;20515;-56
2023/06/03 05:40:38;;;;;;;2.33;1.08;;;12.60;99.90;;;;;;5112794;28;20028;-52
2023/06/03 05:43:04;;;;;;;3.42;1.25;;;12.70;99.90;;;;;;5112558;28;20489;-58
2023/06/03 05:45:29;;;;;;;3.28;1.30;;;12.70;99.90;;;;;;5106577;28;20059;-57
2023/06/03 05:47:55;;;;;;;2.53;1.27;;;12.80;99.90;;;;;;5109724;28;20047;-53
2023/06/03 05:50:20;;;;;;;1.33;0.90;;;13.00;99.90;;;;;;5107840;28;20107;-58
2023/06/03 05:52:46;;;;;;;11.50;1.75;;;13.00;99.90;;;;;;5102640;28;20039;-58
2023/06/03 05:55:12;;;;;;;10.52;1.20;;;13.10;99.90;;;;;;5112687;28;20106;-56
2023/06/03 05:57:40;;;;;;;4.55;1.40;;;13.20;99.90;;;;;;5109821;28;20043;-59
2023/06/03 06:00:06;;;;;;;6.15;1.88;;;13.30;99.90;;;;;;5111387;28;20025;-60
2023/06/03 06:02:32;;;;;;;5.30;1.83;;;13.40;99.90;;;;;;5108304;28;20069;-57
2023/06/03 06:04:57;;;;;;;4.28;1.33;;;13.50;99.90;;;;;;5110411;28;20114;-57
2023/06/03 06:07:23;;;;;;;2.45;1.20;;;13.60;99.90;;;;;;5109182;28;20068;-58
2023/06/03 06:09:48;;;;;;;4.53;1.75;;;13.70;99.90;;;;;;5108860;28;20531;-57
2023/06/03 06:12:14;;;;;;;2.72;1.20;;;13.80;99.90;;;;;;5108875;28;20020;-56
2023/06/03 06:14:39;;;;;;;2.75;1.00;;;13.80;99.90;;;;;;5111824;28;20034;-60
2023/06/03 06:17:05;;;;;;;1.73;0.98;;;13.80;99.90;;;;;;5109775;28;20034;-56
2023/06/03 06:19:33;;;;;;;2.13;1.27;;;13.90;99.90;;;;;;5106709;27;20042;-56
2023/06/03 06:21:59;;;;;;;6.47;1.50;;;14.00;99.90;;;;;;5105849;28;20023;-55
2023/06/03 06:24:24;;;;;;;6.30;1.85;;;14.00;99.90;;;;;;5108726;28;20023;-58
2023/06/03 06:26:51;;;;;;;3.28;2.13;;;14.10;99.90;;;;;;5105369;28;20394;-54
2023/06/03 06:29:16;;;;;;;8.20;2.65;;;14.20;99.90;;;;;;5105350;28;20112;-56
2023/06/03 06:31:44;;;;;;;4.85;1.77;;;14.30;99.90;;;;;;5107934;27;20047;-53
2023/06/03 06:34:10;;;;;;;4.47;1.25;;;14.30;99.90;;;;;;5102855;28;20106;-57
2023/06/03 06:36:44;;;;;;;7.93;1.42;;;14.30;99.90;;;;;;5107659;28;20110;-55
2023/06/03 06:39:34;;;;;;;5.07;1.55;;;14.40;99.90;;;;;;5111110;28;20508;-56
2023/06/03 06:42:10;;;;;;;8.82;2.58;;;14.60;99.90;;;;;;5108269;28;20031;-52
2023/06/03 06:44:47;;;;;;;6.50;1.58;;;14.70;99.90;;;;;;5107502;28;20363;-56
2023/06/03 06:47:22;;;;;;;10.52;2.05;;;14.70;99.90;;;;;;5108680;28;20477;-59
2023/06/03 06:49:52;;;;;;;2.83;1.15;;;14.80;99.90;;;;;;5105284;28;20107;-57
2023/06/03 06:52:22;;;;;;;2.33;1.30;;;14.80;99.90;;;;;;5108343;28;20020;-57
2023/06/03 06:54:49;;;;;;;1.80;1.08;;;14.90;99.90;;;;;;5106250;28;20039;-55
2023/06/03 06:57:22;;;;;;;4.97;1.08;;;15.00;99.90;;;;;;5105088;28;20043;-59
2023/06/03 06:59:48;;;;;;;2.30;1.10;;;15.00;99.90;;;;;;5106140;27;20115;-54
2023/06/03 07:02:15;;;;;;;2.80;1.20;;;15.10;99.90;;;;;;5107039;28;20016;-52
2023/06/03 07:04:40;;;;;;;5.75;1.30;;;15.10;99.90;;;;;;5107797;28;20065;-57
2023/06/03 07:07:06;;;;;;;3.30;1.35;;;15.20;99.90;;;;;;5103898;28;20028;-60
2023/06/03 07:09:31;;;;;;;9.05;1.48;;;15.30;99.90;;;;;;5105884;27;20371;-54
2023/06/03 07:11:57;;;;;;;4.70;1.42;;;15.40;99.90;;;;;;5107739;28;20038;-58
2023/06/03 07:14:23;;;;;;;2.45;0.98;;;15.50;99.90;;;;;;5102854;28;20370;-55
2023/06/03 07:16:48;;;;;;;6.97;1.60;;;15.50;99.90;;;;;;5106376;28;20024;-56
2023/06/03 07:19:14;;;;;;;5.93;1.30;;;15.60;99.90;;;;;;5105833;28;20047;-57
2023/06/03 07:21:40;;;;;;;2.42;1.48;;;15.70;99.90;;;;;;5101603;28;20048;-55
2023/06/03 07:24:08;;;;;;;4.97;1.30;;;15.80;99.90;;;;;;5102945;28;20034;-53
2023/06/03 07:26:35;;;;;;;6.55;1.25;;;16.00;99.90;;;;;;5107266;27;20027;-54
2023/06/03 07:29:01;;;;;;;4.32;1.20;;;16.10;99.90;;;;;;5106695;28;20043;-52
2023/06/03 07:31:29;;;;;;;3.55;1.15;;;16.10;99.90;;;;;;5106087;28;20031;-53
2023/06/03 07:33:56;;;;;;;3.42;1.30;;;16.30;99.90;;;;;;5107440;28;20031;-52
2023/06/03 07:36:24;;;;;;;2.53;1.27;;;16.30;99.90;;;;;;5102872;28;20574;-55
2023/06/03 07:39:03;;;;;;;2.38;1.25;;;16.30;99.90;;;;;;5102669;28;20066;-55
2023/06/03 07:41:37;;;;;;;4.32;1.63;;;16.30;99.90;;;;;;5106832;28;20047;-54
2023/06/03 07:44:04;;;;;;;;;;;16.40;99.90;;;;;;5105053;28;20371;-55
2023/06/03 07:46:44;;;;;;;3.03;1.17;;;16.50;99.90;;;;;;5103975;28;19914;-54
2023/06/03 07:49:11;;;;;;;5.50;1.33;;;16.60;99.90;;;;;;5101322;28;20024;-56
2023/06/03 07:51:40;;;;;;;3.30;1.30;;;16.70;99.90;;;;;;5104534;28;20030;-56
2023/06/03 07:54:06;;;;;;;2.00;1.00;;;16.70;99.90;;;;;;5099059;28;20032;-52
2023/06/03 07:56:33;;;;;;;4.43;1.30;;;16.80;99.90;;;;;;5103925;28;20474;-54
2023/06/03 07:59:00;;;;;;;5.60;1.30;;;16.80;99.90;;;;;;5096531;28;20034;-50
2023/06/03 08:01:26;;;;;;;2.40;1.05;;;16.90;99.90;;;;;;5105755;28;20402;-54
2023/06/03 08:03:52;;;;;;;3.03;1.27;;;17.00;99.90;;;;;;5104087;28;20024;-56
2023/06/03 08:06:20;;;;;;;3.53;1.58;;;17.10;99.90;;;;;;5105597;28;20534;-55
2023/06/03 08:08:45;;;;;;;3.70;1.85;;;17.20;99.90;;;;;;5107754;28;20390;-54
2023/06/03 08:11:11;;;;;;;2.45;1.20;;;17.20;99.90;;;;;;5109813;28;20073;-59
2023/06/03 08:13:37;;;;;;;3.45;1.27;;;17.30;99.90;;;;;;5105222;28;20072;-58
2023/06/03 08:16:05;;;;;;;5.38;1.25;;;17.30;99.90;;;;;;5104796;28;20028;-55
2023/06/03 08:18:47;;;;;;;3.55;1.25;;;17.40;99.90;;;;;;5103679;28;20028;-55
2023/06/03 08:21:13;;;;;;;4.18;1.58;;;17.50;99.50;;;;;;5105783;28;20388;-52
2023/06/03 08:23:39;;;;;;;5.68;1.55;;;17.70;99.90;;;;;;5101133;28;20058;-55
2023/06/03 08:26:06;;;;;;;4.57;1.05;;;17.90;98.90;;;;;;5104224;28;20347;-52
2023/06/03 08:28:31;;;;;;;5.45;1.45;;;18.00;97.60;;;;;;5102852;28;20023;-51
2023/06/03 08:30:58;;;;;;;3.85;1.17;;;18.10;97.10;;;;;;5110000;28;20024;-54
2023/06/03 08:33:24;;;;;;;5.30;1.17;;;18.10;97.50;;;;;;5106158;28;20024;-55
2023/06/03 08:35:49;;;;;;;3.83;1.60;;;18.20;97.50;;;;;;5113283;28;20072;-56
2023/06/03 08:38:16;;;;;;;5.35;1.75;;;18.30;97.10;;;;;;5106915;28;20039;-53
2023/06/03 08:40:50;;;;;;;4.63;1.67;;;18.40;95.90;;;;;;5106362;28;20472;-55
2023/06/03 08:43:16;;;;;;;4.53;1.48;;;18.40;96.50;;;;;;5107651;28;20038;-60
2023/06/03 08:46:19;;;;;;;10.98;1.60;;;18.60;99.90;;;;;;5109879;28;20405;-57
2023/06/03 08:49:04;;;;;;;3.00;1.60;;;18.70;99.60;;;;;;5103742;28;20536;-54
2023/06/03 08:51:37;;;;;;;3.13;1.60;;;18.70;97.90;;;;;;5108751;28;20042;-49
2023/06/03 08:54:11;;;;;;;5.40;1.92;;;18.80;99.90;;;;;;5109046;28;20034;-54
2023/06/03 08:56:44;;;;;;;6.80;1.30;;;19.00;99.20;;;;;;5108726;28;20055;-58
2023/06/03 08:59:14;;;;;;;6.55;1.92;;;19.10;97.30;;;;;;5111247;28;20285;-54
2023/06/03 09:01:42;;;;;;;5.35;1.60;;;19.30;97.30;;;;;;5101615;27;20059;-55
2023/06/03 09:04:08;;;;;;;3.25;1.27;;;19.40;99.90;;;;;;5110379;27;20031;-55
2023/06/03 09:06:34;;;;;;;6.15;1.70;;;19.50;96.00;;;;;;5108467;28;20047;-51
2023/06/03 09:09:00;;;;;;;8.65;2.03;;;19.70;98.10;;;;;;5108617;28;20051;-52
2023/06/03 09:11:26;;;;;;;4.72;1.63;;;19.70;97.50;;;;;;5103960;28;20108;-51
2023/06/03 09:13:55;;;;;;;11.70;2.63;;;19.80;98.40;;;;;;5111449;28;20091;-54
2023/06/03 09:16:21;;;;;;;3.72;1.70;;;19.90;99.20;;;;;;5101515;28;20023;-52
2023/06/03 09:18:49;;;;;;;3.50;1.30;;;20.10;99.10;;;;;;5110222;28;20043;-54
2023/06/03 09:21:15;;;;;;;5.15;1.88;;;20.20;95.20;;;;;;5110688;28;20512;-52
2023/06/03 09:23:41;;;;;;;5.35;1.90;;;20.30;95.70;;;;;;5111451;28;20024;-53
2023/06/03 09:26:07;;;;;;;10.80;1.42;;;20.40;95.50;;;;;;5106643;28;20020;-54
2023/06/03 09:28:35;;;;;;;5.13;1.70;;;20.50;95.80;;;;;;5103936;28;20031;-53
2023/06/03 09:31:01;;;;;;;4.22;1.92;;;20.60;92.90;;;;;;5111092;28;20030;-54
2023/06/03 09:33:27;;;;;;;6.72;2.38;;;20.70;92.20;;;;;;5106020;28;20016;-52
2023/06/03 09:36:05;;;;;;;6.88;1.77;;;20.90;92.70;;;;;;5101749;28;20032;-53
2023/06/03 09:38:54;;;;;;;3.97;1.80;;;21.00;90.50;;;;;;5108008;28;20381;-53
2023/06/03 09:41:21;;;;;;;5.82;1.83;;;21.00;89.00;;;;;;5108939;28;20046;-53
2023/06/03 09:44:03;;;;;;;6.28;1.92;;;21.10;93.90;;;;;;5110907;28;20386;-51
2023/06/03 09:46:33;;;;;;;5.93;1.83;;;21.40;91.90;;;;;;5107821;28;20077;-51
2023/06/03 09:49:08;;;;;;;4.43;2.33;;;21.40;92.60;;;;;;5105322;28;20031;-50
2023/06/03 09:51:47;;;;;;;3.25;1.38;;;21.60;92.60;;;;;;5112637;28;20031;-53
2023/06/03 09:54:18;;;;;;;6.03;2.00;;;21.90;93.40;;;;;;5104457;28;20066;-49
2023/06/03 09:56:48;;;;;;;4.38;2.05;;;22.10;92.10;;;;;;5110988;28;20016;-54
2023/06/03 09:59:16;;;;;;;3.35;1.50;;;22.30;91.80;;;;;;5110391;28;20102;-53
2023/06/03 10:01:47;;;;;;;3.55;2.00;;;22.50;88.40;;;;;;5110512;28;20148;-53
2023/06/03 10:04:23;;;;;;;5.13;2.15;;;22.40;88.20;;;;;;5107460;28;20359;-54
2023/06/03 10:07:17;;;;;;;7.40;2.08;;;22.50;90.30;;;;;;5108361;28;20027;-52
2023/06/03 10:09:44;;;;;;;4.63;2.78;;;22.40;87.30;;;;;;5109521;28;20463;-54
2023/06/03 10:12:14;;;;;;;10.38;1.98;;;22.70;90.60;;;;;;5106208;28;20031;-58
2023/06/03 10:14:50;;;;;;;4.22;1.98;;;22.90;84.80;;;;;;5108735;28;20026;-51
2023/06/03 10:17:19;;;;;;;3.95;1.90;;;23.00;86.40;;;;;;5108881;28;20059;-53
2023/06/03 10:19:46;;;;;;;5.80;2.13;;;23.10;86.50;;;;;;5110122;28;20513;-55
2023/06/03 10:22:13;;;;;;;5.95;1.80;;;23.40;77.50;;;;;;5107617;28;20032;-50
2023/06/03 10:24:45;;;;;;;4.40;1.40;;;23.40;76.50;;;;;;5110353;28;20030;-50
2023/06/03 10:27:11;;;;;;;3.45;1.58;;;23.60;88.10;;;;;;5099884;28;20031;-54
2023/06/03 10:29:37;;;;;;;11.35;1.90;;;23.70;86.80;;;;;;5106483;28;20473;-52
2023/06/03 10:32:06;;;;;;;18.92;2.40;;;23.70;79.90;;;;;;5105720;28;20051;-50
2023/06/03 10:34:36;;;;;;;5.45;2.13;;;23.90;82.00;;;;;;5109791;28;20020;-54
2023/06/03 10:37:06;;;;;;;6.72;1.73;;;24.00;79.10;;;;;;5109214;28;20096;-55
2023/06/03 10:39:32;;;;;;;5.28;1.65;;;24.00;72.20;;;;;;5110433;28;20028;-52
2023/06/03 10:42:03;;;;;;;4.22;1.77;;;24.00;72.40;;;;;;5106808;28;20112;-54
2023/06/03 10:44:30;;;;;;;6.78;1.70;;;24.00;80.20;;;;;;5107429;28;20028;-50
2023/06/03 10:47:11;;;;;;;7.45;2.10;;;24.30;80.10;;;;;;5110387;28;20046;-53
2023/06/03 10:49:39;;;;;;;7.00;1.63;;;24.50;73.50;;;;;;5105499;28;20073;-56
2023/06/03 10:52:33;;;;;;;3.45;1.75;;;24.40;67.90;;;;;;5108441;28;20019;-56
2023/06/03 10:55:30;;;;;;;9.18;1.75;;;24.20;71.70;;;;;;5106603;28;20171;-50
2023/06/03 10:58:18;;;;;;;5.10;1.95;;;24.30;74.00;;;;;;5107504;28;20076;-55
2023/06/03 11:01:01;;;;;;;5.15;1.70;;;24.20;74.10;;;;;;5106926;28;20072;-53
2023/06/03 11:03:29;;;;;;;6.30;2.00;;;24.40;73.90;;;;;;5109460;28;20020;-52
2023/06/03 11:06:21;;;;;;;8.30;2.13;;;24.70;70.00;;;;;;5109595;28;20027;-54
2023/06/03 11:09:05;;;;;;;7.90;1.98;;;24.70;76.30;;;;;;5106462;28;20477;-51
2023/06/03 11:11:42;;;;;;;9.15;1.92;;;24.50;75.00;;;;;;5107587;28;20036;-52
2023/06/03 11:14:08;;;;;;;4.43;1.80;;;24.90;71.00;;;;;;5102236;28;20042;-54
2023/06/03 11:16:56;;;;;;;4.47;1.63;;;24.60;74.10;;;;;;5104386;28;20153;-54
2023/06/03 11:19:31;;;;;;;3.10;1.88;;;24.40;69.90;;;;;;5107595;28;20023;-53
2023/06/03 11:21:57;;;;;;;5.05;2.00;;;24.80;64.20;;;;;;5105405;28;20308;-56
2023/06/03 11:24:38;;;;;;;4.00;1.73;;;24.80;67.50;;;;;;5103387;28;20015;-53
2023/06/03 11:27:09;;;;;;;2.67;1.45;;;25.20;75.90;;;;;;5104932;28;20107;-50
2023/06/03 11:29:47;;;;;;;4.85;1.98;;;25.60;63.40;;;;;;5101696;28;20035;-50
2023/06/03 11:32:13;;;;;;;5.60;1.92;;;25.50;61.50;;;;;;5108440;28;20030;-48
2023/06/03 11:34:38;;;;;;;7.50;2.30;;;25.40;60.50;;;;;;5107001;28;20028;-50
2023/06/03 11:37:04;;;;;;;8.07;2.40;;;25.20;70.80;;;;;;5109009;28;20020;-51
2023/06/03 11:40:05;;;;;;;5.43;2.10;;;25.30;68.20;;;;;;5103935;28;20447;-51
2023/06/03 11:42:51;;;;;;;6.00;1.73;;;25.20;69.30;;;;;;5099565;28;20405;-48
2023/06/03 11:45:16;;;;;;;5.43;2.22;;;25.30;69.60;;;;;;5105270;28;20028;-55
2023/06/03 11:47:52;;;;;;;4.18;1.85;;;25.50;72.50;;;;;;5106702;28;20505;-56
2023/06/03 11:50:19;;;;;;;6.18;1.63;;;25.90;60.70;;;;;;5107793;28;20031;-56
2023/06/03 11:52:45;;;;;;;4.43;1.60;;;25.60;64.70;;;;;;5104635;28;20022;-55
2023/06/03 11:55:21;;;;;;;4.63;1.60;;;25.80;63.40;;;;;;5108758;28;20111;-51
2023/06/03 11:57:46;;;;;;;3.30;1.73;;;26.10;60.40;;;;;;5105681;28;20028;-53
2023/06/03 12:00:13;;;;;;;4.35;2.30;;;26.20;59.20;;;;;;5104567;28;20046;-51
2023/06/03 12:02:46;;;;;;;3.10;1.70;;;26.00;64.30;;;;;;5108211;28;20020;-55
2023/06/03 12:05:12;;;;;;;10.23;1.85;;;26.10;63.80;;;;;;5106227;28;20102;-52
2023/06/03 12:07:38;;;;;;;4.35;1.85;;;26.50;61.80;;;;;;5110996;28;20030;-53
2023/06/03 12:10:05;;;;;;;6.93;1.95;;;26.70;59.70;;;;;;5111950;27;20024;-56
2023/06/03 12:12:30;;;;;;;6.63;1.70;;;26.50;67.00;;;;;;5113383;28;20506;-52
2023/06/03 12:15:04;;;;;;;3.08;1.75;;;26.60;67.40;;;;;;5110706;28;20039;-53
2023/06/03 12:17:30;;;;;;;3.75;1.83;;;26.70;63.50;;;;;;5111032;28;20400;-52
2023/06/03 12:19:56;;;;;;;4.13;2.00;;;27.00;59.00;;;;;;5109162;28;20397;-51
2023/06/03 12:22:24;;;;;;;8.68;2.15;;;27.20;59.00;;;;;;5107694;28;20048;-53
2023/06/03 12:24:50;;;;;;;7.40;2.00;;;26.70;65.90;;;;;;5109320;28;20022;-52
2023/06/03 12:27:24;;;;;;;3.78;1.92;;;27.00;62.60;;;;;;5108635;28;20110;-53
2023/06/03 12:29:57;;;;;;;5.50;2.35;;;27.00;66.60;;;;;;5108484;28;20480;-51
2023/06/03 12:32:28;;;;;;;4.18;1.67;;;27.00;65.80;;;;;;5108840;28;20400;-56
2023/06/03 12:34:54;;;;;;;9.88;1.98;;;27.00;63.80;;;;;;5105053;28;20435;-53
2023/06/03 12:37:33;;;;;;;2.75;1.67;;;27.10;62.00;;;;;;5109740;28;20019;-57
2023/06/03 12:39:59;;;;;;;6.00;1.95;;;26.90;60.10;;;;;;5114403;28;20149;-52
2023/06/03 12:42:36;;;;;;;10.45;1.83;;;26.90;62.40;;;;;;5109973;28;20096;-55
2023/06/03 12:45:02;;;;;;;5.35;1.98;;;26.90;62.70;;;;;;5111626;28;20103;-55
2023/06/03 12:47:28;;;;;;;4.32;1.90;;;26.90;66.10;;;;;;5110159;28;20047;-56
2023/06/03 12:50:08;;;;;;;5.13;1.90;;;27.10;62.30;;;;;;5104349;28;20054;-52
2023/06/03 12:52:37;;;;;;;5.13;1.80;;;27.60;59.30;;;;;;5105884;28;20172;-50
2023/06/03 12:55:04;;;;;;;4.30;1.85;;;27.90;56.90;;;;;;5106870;28;20793;-51